METAR Data
IDs: Format: Raw Decoded Include TAF

Data at: 1519 UTC 10 Aug 2022

KDMN 101453Z AUTO 10005KT 10SM CLR 23/17 A3025 RMK AO2 SLP171 T02330167 53002

KDMN 101132Z 1012/1112 08007KT P6SM SCT090 BKN200
  FM102200 12008KT P6SM VCTS SCT080CB BKN150
  FM110300 07007KT P6SM FEW080 BKN200